createdAt,value
2022-08-28T00:00:03.397Z,15.40
2022-08-28T00:00:13.401Z,15.60
2022-08-28T00:00:23.399Z,15.60
2022-08-28T00:00:34.216Z,15.50
2022-08-28T00:00:43.499Z,15.80
2022-08-28T00:00:53.388Z,16.20
2022-08-28T00:01:03.401Z,17.10
2022-08-28T00:01:13.410Z,17.00
2022-08-28T00:01:23.485Z,17.20
2022-08-28T00:01:33.387Z,16.40
2022-08-28T00:01:43.393Z,16.70
2022-08-28T00:01:53.395Z,17.90
2022-08-28T00:02:03.422Z,19.60
2022-08-28T00:02:16.214Z,20.40
2022-08-28T00:02:23.431Z,19.20
2022-08-28T00:02:33.526Z,18.10
2022-08-28T00:02:44.257Z,18.30
2022-08-28T00:02:53.506Z,19.30
2022-08-28T00:03:03.425Z,20.10
2022-08-28T00:03:13.435Z,21.20
2022-08-28T00:03:23.384Z,21.50
2022-08-28T00:03:33.384Z,21.70
2022-08-28T00:03:43.401Z,20.70
2022-08-28T00:03:54.185Z,20.50
2022-08-28T00:04:03.380Z,20.60
2022-08-28T00:04:13.406Z,21.00
2022-08-28T00:04:23.413Z,21.40
2022-08-28T00:04:33.464Z,21.80
2022-08-28T00:04:43.568Z,22.30
2022-08-28T00:04:53.479Z,22.30
2022-08-28T00:05:03.401Z,22.90
2022-08-28T00:05:13.368Z,23.20
2022-08-28T00:05:23.374Z,23.70
2022-08-28T00:05:33.370Z,24.20
2022-08-28T00:05:43.373Z,24.70
2022-08-28T00:05:53.367Z,25.10
2022-08-28T00:06:03.377Z,24.60
2022-08-28T00:06:13.376Z,24.20
2022-08-28T00:06:23.369Z,24.30
2022-08-28T00:06:33.393Z,24.80
2022-08-28T00:06:43.377Z,25.60
2022-08-28T00:06:54.192Z,26.40
2022-08-28T00:07:03.368Z,26.40
2022-08-28T00:07:13.372Z,25.70
2022-08-28T00:07:23.379Z,24.00
2022-08-28T00:07:33.431Z,23.30
2022-08-28T00:07:47.794Z,23.40
2022-08-28T00:07:53.369Z,24.70
2022-08-28T00:08:03.366Z,25.70
2022-08-28T00:08:13.552Z,26.40
2022-08-28T00:08:24.193Z,26.30
2022-08-28T00:08:33.363Z,26.20
2022-08-28T00:08:43.384Z,26.00
2022-08-28T00:08:54.193Z,25.90
2022-08-28T00:09:03.455Z,26.00
2022-08-28T00:09:13.359Z,26.10
2022-08-28T00:09:23.363Z,26.40
2022-08-28T00:09:33.351Z,25.40
2022-08-28T00:09:43.357Z,24.50
2022-08-28T00:09:53.352Z,24.70
2022-08-28T00:10:03.358Z,24.30
2022-08-28T00:10:13.359Z,24.40
2022-08-28T00:10:23.358Z,22.90
2022-08-28T00:10:33.347Z,23.90
2022-08-28T00:10:43.350Z,24.30
2022-08-28T00:10:53.355Z,24.10
2022-08-28T00:11:04.194Z,25.10
2022-08-28T00:11:13.350Z,25.70
2022-08-28T00:11:23.392Z,26.90
2022-08-28T00:11:33.508Z,27.00
2022-08-28T00:11:43.348Z,27.00
2022-08-28T00:11:53.347Z,27.30
2022-08-28T00:12:03.348Z,26.80
2022-08-28T00:12:13.363Z,26.80
2022-08-28T00:12:23.355Z,26.50
2022-08-28T00:12:33.340Z,26.70
2022-08-28T00:12:43.354Z,26.40
2022-08-28T00:12:53.732Z,26.40
2022-08-28T00:13:04.208Z,26.30
2022-08-28T00:13:13.336Z,26.20
2022-08-28T00:13:23.347Z,26.60
2022-08-28T00:13:33.336Z,25.80
2022-08-28T00:13:43.472Z,25.40
2022-08-28T00:13:53.335Z,24.50
2022-08-28T00:14:03.336Z,25.00
2022-08-28T00:14:13.350Z,26.40
2022-08-28T00:14:23.338Z,26.70
2022-08-28T00:14:34.258Z,27.50
2022-08-28T00:14:43.333Z,27.30
2022-08-28T00:14:53.327Z,27.40
2022-08-28T00:15:03.354Z,28.50
2022-08-28T00:15:14.419Z,28.70
2022-08-28T00:15:23.344Z,30.10
2022-08-28T00:15:34.197Z,29.90
2022-08-28T00:15:43.399Z,30.50
2022-08-28T00:15:53.406Z,30.50
2022-08-28T00:16:03.377Z,29.40
2022-08-28T00:16:13.407Z,28.90
2022-08-28T00:16:23.375Z,28.50
2022-08-28T00:16:33.523Z,28.20
2022-08-28T00:16:44.224Z,28.30
2022-08-28T00:16:53.334Z,27.90
2022-08-28T00:17:03.352Z,27.60
2022-08-28T00:17:13.347Z,27.40
2022-08-28T00:17:23.435Z,28.10
2022-08-28T00:17:33.318Z,29.20
2022-08-28T00:17:43.327Z,29.70
2022-08-28T00:17:53.336Z,29.50
2022-08-28T00:18:03.371Z,28.40
2022-08-28T00:18:13.596Z,27.60
2022-08-28T00:18:23.341Z,27.20
2022-08-28T00:18:33.368Z,27.60
2022-08-28T00:18:43.326Z,27.70
2022-08-28T00:18:53.333Z,28.30
2022-08-28T00:19:04.207Z,28.50
2022-08-28T00:19:13.312Z,28.90
2022-08-28T00:19:23.391Z,28.70
2022-08-28T00:19:36.699Z,29.30
2022-08-28T00:19:43.317Z,30.10
2022-08-28T00:19:53.314Z,30.50
2022-08-28T00:20:03.314Z,30.40
2022-08-28T00:20:13.348Z,29.30
2022-08-28T00:20:23.316Z,29.50
2022-08-28T00:20:33.312Z,29.00
2022-08-28T00:20:43.327Z,28.40
2022-08-28T00:20:53.304Z,28.10
2022-08-28T00:21:03.318Z,28.00
2022-08-28T00:21:13.326Z,30.00
2022-08-28T00:21:24.209Z,31.20
2022-08-28T00:21:33.300Z,32.20
2022-08-28T00:21:43.306Z,32.20
2022-08-28T00:21:53.309Z,31.20
2022-08-28T00:22:03.301Z,30.80
2022-08-28T00:22:13.336Z,30.10
2022-08-28T00:22:23.311Z,30.40
2022-08-28T00:22:33.297Z,30.10
2022-08-28T00:22:43.327Z,29.20
2022-08-28T00:22:53.318Z,28.50
2022-08-28T00:23:03.305Z,29.40
2022-08-28T00:23:14.207Z,31.20
2022-08-28T00:23:23.295Z,31.50
2022-08-28T00:23:43.128Z,31.40
2022-08-28T00:23:43.436Z,31.20
2022-08-28T00:23:53.300Z,30.80
2022-08-28T00:24:03.300Z,28.90
2022-08-28T00:24:13.291Z,27.70
2022-08-28T00:24:23.316Z,26.70
2022-08-28T00:24:33.300Z,27.60
2022-08-28T00:24:43.294Z,28.40
2022-08-28T00:24:55.062Z,30.20
2022-08-28T00:25:03.288Z,30.90
2022-08-28T00:25:13.291Z,30.70
2022-08-28T00:25:23.296Z,29.90
2022-08-28T00:25:34.217Z,30.40
2022-08-28T00:25:44.204Z,30.60
2022-08-28T00:25:53.293Z,31.30
2022-08-28T00:26:03.291Z,29.90
2022-08-28T00:26:13.307Z,29.90
2022-08-28T00:26:23.304Z,30.20
2022-08-28T00:26:33.352Z,30.60
2022-08-28T00:26:43.284Z,32.60
2022-08-28T00:26:53.290Z,33.10
2022-08-28T00:27:03.281Z,34.50
2022-08-28T00:27:13.290Z,33.90
2022-08-28T00:27:23.287Z,34.80
2022-08-28T00:27:33.306Z,35.40
2022-08-28T00:27:43.371Z,36.10
2022-08-28T00:27:53.291Z,36.80
2022-08-28T00:28:08.602Z,38.20
2022-08-28T00:28:23.723Z,38.80
2022-08-28T00:28:24.079Z,37.90
2022-08-28T00:28:33.279Z,37.20
2022-08-28T00:28:43.279Z,37.00
2022-08-28T00:28:53.288Z,37.90
2022-08-28T00:29:03.288Z,38.20
2022-08-28T00:29:13.280Z,37.90
2022-08-28T00:29:23.277Z,38.00
2022-08-28T00:29:33.268Z,38.40
2022-08-28T00:29:43.298Z,39.20
2022-08-28T00:29:53.268Z,39.50
2022-08-28T00:30:03.273Z,40.30
2022-08-28T00:30:13.307Z,40.60
2022-08-28T00:30:23.270Z,40.30
2022-08-28T00:30:33.271Z,39.50
2022-08-28T00:30:43.282Z,38.00
2022-08-28T00:30:53.307Z,37.60
2022-08-28T00:31:03.295Z,38.40
2022-08-28T00:31:13.299Z,41.00
2022-08-28T00:31:23.301Z,42.60
2022-08-28T00:31:36.279Z,41.40
2022-08-28T00:31:43.344Z,40.50
2022-08-28T00:31:53.325Z,41.20
2022-08-28T00:32:03.266Z,43.70
2022-08-28T00:32:13.260Z,45.20
2022-08-28T00:32:23.258Z,45.20
2022-08-28T00:32:34.206Z,45.00
2022-08-28T00:32:43.267Z,43.90
2022-08-28T00:32:54.206Z,43.80
2022-08-28T00:33:03.257Z,44.30
2022-08-28T00:33:13.325Z,45.00
2022-08-28T00:33:23.277Z,44.70
2022-08-28T00:33:33.293Z,44.40
2022-08-28T00:33:43.258Z,45.90
2022-08-28T00:33:54.274Z,48.00
2022-08-28T00:34:03.253Z,47.50
2022-08-28T00:34:13.250Z,46.10
2022-08-28T00:34:25.504Z,43.70
2022-08-28T00:34:33.785Z,42.90
2022-08-28T00:34:43.261Z,42.60
2022-08-28T00:34:53.254Z,43.30
2022-08-28T00:35:03.249Z,43.90
2022-08-28T00:35:13.257Z,45.00
2022-08-28T00:35:23.263Z,45.60
2022-08-28T00:35:33.244Z,47.40
2022-08-28T00:35:43.247Z,48.10
2022-08-28T00:35:53.252Z,48.80
2022-08-28T00:36:03.317Z,48.60
2022-08-28T00:36:13.246Z,49.00
2022-08-28T00:36:23.255Z,48.60
2022-08-28T00:36:33.261Z,50.00
2022-08-28T00:36:44.215Z,50.80
2022-08-28T00:36:53.240Z,52.60
2022-08-28T00:37:03.257Z,52.40
2022-08-28T00:37:13.236Z,54.20
2022-08-28T00:37:24.612Z,55.20
2022-08-28T00:37:33.237Z,57.10
2022-08-28T00:37:43.239Z,56.10
2022-08-28T00:37:53.243Z,55.30
2022-08-28T00:38:04.238Z,54.10
2022-08-28T00:38:13.509Z,53.50
2022-08-28T00:38:23.245Z,53.10
2022-08-28T00:38:33.239Z,53.80
2022-08-28T00:38:43.278Z,54.60
2022-08-28T00:38:53.227Z,55.00
2022-08-28T00:39:03.263Z,56.00
2022-08-28T00:39:13.233Z,57.30
2022-08-28T00:39:23.229Z,58.70
2022-08-28T00:39:33.233Z,58.10
2022-08-28T00:39:43.228Z,58.80
2022-08-28T00:39:53.268Z,57.60
2022-08-28T00:40:03.280Z,57.40
2022-08-28T00:40:13.467Z,57.50
2022-08-28T00:40:28.885Z,58.80
2022-08-28T00:40:33.944Z,58.90
2022-08-28T00:40:43.293Z,57.80
2022-08-28T00:40:53.228Z,57.00
2022-08-28T00:41:03.912Z,58.20
2022-08-28T00:41:13.230Z,58.10
2022-08-28T00:41:24.946Z,57.20
2022-08-28T00:41:33.221Z,53.80
2022-08-28T00:41:44.250Z,53.70
2022-08-28T00:41:56.677Z,54.60
2022-08-28T00:42:03.212Z,56.60
2022-08-28T00:42:14.241Z,57.20
2022-08-28T00:42:23.212Z,58.00
2022-08-28T00:42:33.241Z,58.00
2022-08-28T00:42:43.215Z,57.90
2022-08-28T00:42:53.213Z,58.40
2022-08-28T00:43:03.216Z,59.40
2022-08-28T00:43:13.233Z,60.50
2022-08-28T00:43:23.217Z,61.80
2022-08-28T00:43:33.214Z,64.20
2022-08-28T00:43:43.218Z,64.50
2022-08-28T00:43:53.259Z,62.20
2022-08-28T00:44:03.212Z,58.50
2022-08-28T00:44:13.228Z,56.70
2022-08-28T00:44:23.398Z,56.90
2022-08-28T00:44:33.213Z,58.30
2022-08-28T00:44:43.218Z,60.20
2022-08-28T00:44:53.233Z,61.80
2022-08-28T00:45:03.201Z,62.60
2022-08-28T00:45:13.211Z,60.80
2022-08-28T00:45:23.211Z,58.60
2022-08-28T00:45:38.756Z,57.40
2022-08-28T00:45:43.199Z,59.00
2022-08-28T00:45:53.200Z,60.90
2022-08-28T00:46:03.233Z,61.90
2022-08-28T00:46:13.252Z,61.00
2022-08-28T00:46:23.782Z,63.00
2022-08-28T00:46:33.302Z,64.40
2022-08-28T00:46:43.262Z,64.30
2022-08-28T00:46:53.358Z,62.30
2022-08-28T00:47:03.191Z,60.60
2022-08-28T00:47:13.208Z,59.70
2022-08-28T00:47:23.208Z,59.30
2022-08-28T00:47:33.205Z,60.00
2022-08-28T00:47:43.205Z,60.60
2022-08-28T00:47:53.198Z,60.50
2022-08-28T00:48:03.189Z,61.60
2022-08-28T00:48:13.507Z,63.40
2022-08-28T00:48:23.190Z,64.70
2022-08-28T00:48:33.301Z,64.40
2022-08-28T00:48:43.186Z,64.80
2022-08-28T00:48:53.198Z,64.40
2022-08-28T00:49:03.216Z,65.90
2022-08-28T00:49:13.247Z,66.30
2022-08-28T00:49:23.185Z,67.80
2022-08-28T00:49:33.194Z,66.40
2022-08-28T00:49:43.186Z,67.20
2022-08-28T00:49:53.714Z,67.40
2022-08-28T00:50:03.186Z,68.30
2022-08-28T00:50:13.187Z,63.20
2022-08-28T00:50:23.186Z,60.60
2022-08-28T00:50:33.721Z,60.50
2022-08-28T00:50:43.285Z,65.10
2022-08-28T00:50:53.182Z,68.40
2022-08-28T00:51:03.184Z,64.70
2022-08-28T00:51:13.177Z,60.70
2022-08-28T00:51:23.177Z,57.40
2022-08-28T00:51:33.180Z,59.70
2022-08-28T00:51:43.185Z,62.70
2022-08-28T00:51:53.182Z,65.90
2022-08-28T00:52:03.177Z,67.90
2022-08-28T00:52:13.187Z,69.50
2022-08-28T00:52:23.726Z,68.60
2022-08-28T00:52:33.175Z,66.50
2022-08-28T00:52:43.234Z,64.40
2022-08-28T00:52:53.177Z,65.70
2022-08-28T00:53:03.170Z,67.90
2022-08-28T00:53:13.175Z,71.50
2022-08-28T00:53:23.540Z,72.70
2022-08-28T00:53:33.320Z,72.80
2022-08-28T00:53:43.168Z,66.20
2022-08-28T00:53:56.660Z,62.00
2022-08-28T00:54:07.516Z,58.40
2022-08-28T00:54:13.221Z,63.90
2022-08-28T00:54:23.166Z,67.60
2022-08-28T00:54:33.192Z,71.70
2022-08-28T00:54:45.390Z,72.30
2022-08-28T00:54:59.591Z,71.90
2022-08-28T00:55:03.165Z,69.90
2022-08-28T00:55:13.199Z,71.30
2022-08-28T00:55:23.196Z,74.30
2022-08-28T00:55:33.179Z,78.50
2022-08-28T00:55:43.166Z,79.40
2022-08-28T00:55:53.192Z,77.40
2022-08-28T00:56:04.111Z,75.90
2022-08-28T00:56:13.512Z,74.60
2022-08-28T00:56:23.152Z,78.50
2022-08-28T00:56:33.184Z,77.20
2022-08-28T00:56:43.159Z,78.50
2022-08-28T00:56:53.210Z,72.20
2022-08-28T00:57:03.156Z,71.40
2022-08-28T00:57:13.163Z,66.10
2022-08-28T00:57:23.149Z,66.20
2022-08-28T00:57:33.173Z,64.70
2022-08-28T00:57:43.152Z,65.60
2022-08-28T00:57:53.152Z,67.50
2022-08-28T00:58:03.175Z,70.20
2022-08-28T00:58:13.435Z,70.00
2022-08-28T00:58:23.187Z,69.30
2022-08-28T00:58:33.724Z,70.20
2022-08-28T00:58:43.157Z,74.20
2022-08-28T00:58:53.185Z,74.40
2022-08-28T00:59:03.160Z,73.20
2022-08-28T00:59:13.147Z,68.90
2022-08-28T00:59:23.225Z,68.20
2022-08-28T00:59:33.197Z,68.90
2022-08-28T00:59:43.146Z,71.70
2022-08-28T00:59:53.160Z,71.90
2022-08-28T01:00:03.138Z,70.20
2022-08-28T01:00:13.213Z,70.30
2022-08-28T01:00:23.137Z,71.50
2022-08-28T01:00:33.154Z,71.50
2022-08-28T01:00:43.138Z,71.30
2022-08-28T01:00:53.141Z,69.00
2022-08-28T01:01:03.203Z,71.10
2022-08-28T01:01:13.211Z,68.00
2022-08-28T01:01:23.220Z,67.30
2022-08-28T01:01:33.254Z,65.00
2022-08-28T01:01:43.241Z,64.50
2022-08-28T01:01:53.193Z,65.90
2022-08-28T01:02:03.208Z,62.80
2022-08-28T01:02:13.134Z,62.60
2022-08-28T01:02:23.171Z,61.90
2022-08-28T01:02:33.170Z,65.70
2022-08-28T01:02:43.182Z,66.90
2022-08-28T01:02:53.201Z,64.60
2022-08-28T01:03:03.765Z,62.00
2022-08-28T01:03:13.223Z,59.60
2022-08-28T01:03:25.189Z,58.40
2022-08-28T01:03:33.125Z,56.00
2022-08-28T01:03:43.225Z,56.10
2022-08-28T01:03:53.128Z,58.50
2022-08-28T01:04:03.122Z,62.70
2022-08-28T01:04:13.131Z,64.20
2022-08-28T01:04:23.132Z,63.00
2022-08-28T01:04:33.172Z,62.50
2022-08-28T01:04:43.134Z,63.40
2022-08-28T01:04:53.171Z,65.20
2022-08-28T01:05:03.133Z,64.40
2022-08-28T01:05:13.186Z,61.60
2022-08-28T01:05:23.746Z,57.50
2022-08-28T01:05:33.133Z,54.90
2022-08-28T01:05:43.136Z,52.20
2022-08-28T01:05:53.127Z,51.20
2022-08-28T01:06:03.113Z,50.00
2022-08-28T01:06:13.127Z,53.00
2022-08-28T01:06:23.112Z,57.50
2022-08-28T01:06:33.217Z,58.50
2022-08-28T01:06:43.118Z,55.70
2022-08-28T01:06:53.116Z,54.80
2022-08-28T01:07:03.112Z,59.20
2022-08-28T01:07:13.751Z,64.40
2022-08-28T01:07:23.122Z,64.90
2022-08-28T01:07:33.114Z,60.70
2022-08-28T01:07:43.105Z,56.80
2022-08-28T01:07:53.140Z,55.70
2022-08-28T01:08:03.118Z,58.80
2022-08-28T01:08:13.401Z,59.30
2022-08-28T01:08:23.124Z,59.60
2022-08-28T01:08:33.112Z,55.90
2022-08-28T01:08:43.112Z,53.80
2022-08-28T01:08:53.122Z,51.10
2022-08-28T01:09:03.770Z,50.00
2022-08-28T01:09:13.164Z,51.20
2022-08-28T01:09:23.185Z,50.50
2022-08-28T01:09:33.106Z,50.90
2022-08-28T01:09:43.155Z,51.80
2022-08-28T01:09:53.099Z,54.10
2022-08-28T01:10:03.101Z,56.60
2022-08-28T01:10:13.100Z,55.70
2022-08-28T01:10:23.111Z,53.80
2022-08-28T01:10:33.101Z,51.40
2022-08-28T01:10:43.110Z,50.60
2022-08-28T01:10:53.104Z,51.30
2022-08-28T01:11:03.095Z,51.80
2022-08-28T01:11:13.097Z,54.10
2022-08-28T01:11:23.110Z,53.90
2022-08-28T01:11:33.102Z,54.80
2022-08-28T01:11:43.101Z,52.80
2022-08-28T01:11:53.109Z,51.20
2022-08-28T01:12:03.091Z,47.30
2022-08-28T01:12:13.089Z,46.20
2022-08-28T01:12:23.093Z,46.10
2022-08-28T01:12:33.119Z,47.40
2022-08-28T01:12:43.090Z,48.00
2022-08-28T01:12:53.089Z,47.90
2022-08-28T01:13:03.085Z,45.70
2022-08-28T01:13:13.091Z,42.10
2022-08-28T01:13:23.084Z,40.70
2022-08-28T01:13:33.160Z,43.00
2022-08-28T01:13:43.094Z,46.80
2022-08-28T01:13:53.738Z,48.60
2022-08-28T01:14:03.311Z,49.50
2022-08-28T01:14:13.744Z,50.60
2022-08-28T01:14:23.077Z,51.80
2022-08-28T01:14:33.080Z,53.30
2022-08-28T01:14:43.084Z,54.00
2022-08-28T01:14:53.128Z,56.10
2022-08-28T01:15:03.087Z,56.50
2022-08-28T01:15:13.958Z,56.60
2022-08-28T01:15:23.073Z,56.10
2022-08-28T01:15:33.805Z,56.50
2022-08-28T01:15:43.119Z,58.80
2022-08-28T01:15:53.126Z,61.00
2022-08-28T01:16:03.183Z,61.80
2022-08-28T01:16:13.157Z,62.20
2022-08-28T01:16:23.174Z,62.20
2022-08-28T01:16:34.452Z,61.90
2022-08-28T01:16:43.068Z,58.90
2022-08-28T01:16:53.085Z,56.10
2022-08-28T01:17:03.070Z,57.00
2022-08-28T01:17:13.071Z,59.90
2022-08-28T01:17:23.064Z,62.60
2022-08-28T01:17:33.074Z,62.30
2022-08-28T01:17:43.274Z,61.90
2022-08-28T01:17:53.074Z,61.00
2022-08-28T01:18:07.859Z,60.60
2022-08-28T01:18:13.505Z,57.40
2022-08-28T01:18:23.062Z,53.30
2022-08-28T01:18:33.143Z,49.90
2022-08-28T01:18:43.098Z,51.00
2022-08-28T01:18:53.736Z,54.10
2022-08-28T01:19:03.067Z,56.50
2022-08-28T01:19:13.074Z,57.10
2022-08-28T01:19:23.061Z,57.10
2022-08-28T01:19:33.092Z,57.40
2022-08-28T01:19:43.072Z,55.10
2022-08-28T01:19:53.067Z,53.20
2022-08-28T01:20:03.100Z,52.20
2022-08-28T01:20:13.077Z,53.60
2022-08-28T01:20:23.061Z,55.20
2022-08-28T01:20:33.065Z,54.50
2022-08-28T01:20:43.060Z,54.00
2022-08-28T01:20:53.064Z,55.10
2022-08-28T01:21:03.147Z,57.00
2022-08-28T01:21:20.144Z,59.30
2022-08-28T01:21:23.050Z,60.00
2022-08-28T01:21:33.070Z,61.40
2022-08-28T01:21:43.048Z,62.50
2022-08-28T01:21:53.087Z,62.80
2022-08-28T01:22:03.057Z,62.00
2022-08-28T01:22:13.069Z,60.70
2022-08-28T01:22:23.053Z,61.20
2022-08-28T01:22:33.052Z,61.90
2022-08-28T01:22:43.075Z,62.50
2022-08-28T01:22:53.046Z,61.90
2022-08-28T01:23:03.068Z,61.40
2022-08-28T01:23:13.066Z,60.40
2022-08-28T01:23:23.055Z,59.80
2022-08-28T01:23:33.049Z,60.30
2022-08-28T01:23:43.050Z,60.20
2022-08-28T01:23:53.753Z,58.90
2022-08-28T01:24:03.054Z,57.90
2022-08-28T01:24:13.039Z,54.00
2022-08-28T01:24:23.740Z,51.90
2022-08-28T01:24:33.043Z,50.10
2022-08-28T01:24:43.039Z,52.20
2022-08-28T01:24:53.041Z,52.00
2022-08-28T01:25:03.035Z,49.70
2022-08-28T01:25:13.097Z,50.70
2022-08-28T01:25:23.036Z,53.60
2022-08-28T01:25:33.732Z,55.70
2022-08-28T01:25:43.041Z,56.30
2022-08-28T01:25:53.055Z,56.90
2022-08-28T01:26:03.175Z,58.20
2022-08-28T01:26:13.033Z,59.50
2022-08-28T01:26:23.036Z,61.50
2022-08-28T01:26:33.031Z,63.00
2022-08-28T01:26:43.033Z,62.20
2022-08-28T01:26:53.041Z,57.80
2022-08-28T01:27:03.026Z,54.30
2022-08-28T01:27:13.023Z,52.80
2022-08-28T01:27:23.545Z,53.50
2022-08-28T01:27:33.025Z,53.30
2022-08-28T01:27:43.740Z,54.00
2022-08-28T01:27:53.742Z,54.40
2022-08-28T01:28:03.831Z,56.40
2022-08-28T01:28:13.298Z,55.90
2022-08-28T01:28:23.024Z,55.50
2022-08-28T01:28:33.019Z,54.80
2022-08-28T01:28:43.025Z,55.90
2022-08-28T01:28:53.034Z,56.90
2022-08-28T01:29:03.021Z,57.60
2022-08-28T01:29:13.035Z,57.80
2022-08-28T01:29:23.107Z,57.50
2022-08-28T01:29:33.025Z,58.80
2022-08-28T01:29:45.508Z,60.00
2022-08-28T01:29:53.017Z,59.80
2022-08-28T01:30:03.023Z,57.70
2022-08-28T01:30:13.099Z,55.70
2022-08-28T01:30:23.068Z,56.00
2022-08-28T01:30:33.022Z,56.10
2022-08-28T01:30:43.025Z,56.90
2022-08-28T01:30:53.097Z,56.80
2022-08-28T01:31:03.110Z,58.60
2022-08-28T01:31:13.097Z,59.70
2022-08-28T01:31:23.054Z,61.20
2022-08-28T01:31:33.064Z,60.70
2022-08-28T01:31:43.012Z,61.40
2022-08-28T01:31:53.041Z,62.20
2022-08-28T01:32:03.021Z,62.60
2022-08-28T01:32:13.024Z,60.90
2022-08-28T01:32:23.006Z,58.90
2022-08-28T01:32:33.023Z,59.00
2022-08-28T01:32:43.013Z,61.50
2022-08-28T01:32:53.001Z,58.70
2022-08-28T01:33:03.009Z,51.60
2022-08-28T01:33:12.996Z,43.50
2022-08-28T01:33:27.901Z,41.30
2022-08-28T01:33:33.009Z,44.30
2022-08-28T01:33:43.035Z,46.00
2022-08-28T01:33:52.998Z,45.40
2022-08-28T01:34:02.998Z,42.40
2022-08-28T01:34:13.060Z,39.80
2022-08-28T01:34:23.126Z,40.20
2022-08-28T01:34:33.007Z,41.40
2022-08-28T01:34:42.999Z,42.90
2022-08-28T01:34:52.993Z,43.80
2022-08-28T01:35:03.000Z,44.10
2022-08-28T01:35:13.032Z,45.70
2022-08-28T01:35:23.008Z,47.50
2022-08-28T01:35:33.115Z,44.30
2022-08-28T01:35:43.006Z,38.70
2022-08-28T01:35:52.991Z,33.20
2022-08-28T01:36:02.988Z,33.40
2022-08-28T01:36:13.070Z,33.80
2022-08-28T01:36:23.012Z,33.40
2022-08-28T01:36:32.985Z,33.20
2022-08-28T01:36:42.985Z,32.80
2022-08-28T01:36:53.105Z,32.30
2022-08-28T01:37:03.395Z,32.00
2022-08-28T01:37:13.006Z,34.00
2022-08-28T01:37:22.988Z,36.00
2022-08-28T01:37:32.994Z,36.00
2022-08-28T01:37:43.752Z,32.60
2022-08-28T01:37:52.992Z,30.70
2022-08-28T01:38:02.984Z,29.70
2022-08-28T01:38:13.118Z,30.10
2022-08-28T01:38:26.789Z,29.40
2022-08-28T01:38:33.008Z,30.30
2022-08-28T01:38:42.980Z,29.70
2022-08-28T01:38:52.975Z,30.90
2022-08-28T01:39:02.976Z,29.70
2022-08-28T01:39:12.985Z,32.30
2022-08-28T01:39:22.973Z,32.40
2022-08-28T01:39:32.980Z,32.40
2022-08-28T01:39:42.976Z,31.50
2022-08-28T01:39:53.026Z,30.50
2022-08-28T01:40:03.072Z,29.90
2022-08-28T01:40:13.089Z,29.00
2022-08-28T01:40:23.185Z,27.90
2022-08-28T01:40:33.035Z,27.70
2022-08-28T01:40:43.004Z,26.70
2022-08-28T01:40:52.965Z,25.20
2022-08-28T01:41:03.758Z,23.50
2022-08-28T01:41:12.968Z,23.40
2022-08-28T01:41:22.969Z,24.20
2022-08-28T01:41:32.966Z,25.40
2022-08-28T01:41:42.979Z,25.70
2022-08-28T01:41:52.974Z,26.80
2022-08-28T01:42:02.968Z,27.30
2022-08-28T01:42:13.008Z,27.70
2022-08-28T01:42:22.976Z,28.20
2022-08-28T01:42:33.027Z,28.40
2022-08-28T01:42:43.036Z,28.10
2022-08-28T01:42:52.964Z,27.50
2022-08-28T01:43:02.963Z,27.30
2022-08-28T01:43:12.956Z,26.80
2022-08-28T01:43:22.958Z,26.10
2022-08-28T01:43:32.964Z,26.20
2022-08-28T01:43:42.979Z,26.10
2022-08-28T01:43:52.976Z,26.50
2022-08-28T01:44:03.023Z,24.90
2022-08-28T01:44:12.953Z,24.10
2022-08-28T01:44:22.962Z,23.70
2022-08-28T01:44:32.962Z,25.80
2022-08-28T01:44:43.006Z,27.70
2022-08-28T01:44:52.952Z,28.00
2022-08-28T01:45:02.949Z,27.40
2022-08-28T01:45:12.951Z,26.60
2022-08-28T01:45:22.961Z,27.00
2022-08-28T01:45:32.947Z,27.50
2022-08-28T01:45:42.953Z,27.90
2022-08-28T01:45:53.089Z,28.40
2022-08-28T01:46:02.968Z,28.10
2022-08-28T01:46:13.048Z,28.00
2022-08-28T01:46:23.070Z,27.90
2022-08-28T01:46:33.049Z,28.80
2022-08-28T01:46:43.034Z,29.40
2022-08-28T01:46:53.030Z,29.40
2022-08-28T01:47:02.946Z,29.00
2022-08-28T01:47:13.068Z,28.40
2022-08-28T01:47:22.997Z,26.90
2022-08-28T01:47:33.748Z,25.70
2022-08-28T01:47:42.948Z,25.80
2022-08-28T01:47:52.938Z,25.30
2022-08-28T01:48:02.945Z,24.70
2022-08-28T01:48:13.156Z,23.50
2022-08-28T01:48:22.937Z,24.60
2022-08-28T01:48:32.944Z,25.10
2022-08-28T01:48:43.087Z,25.90
2022-08-28T01:48:53.758Z,25.70
2022-08-28T01:49:02.961Z,25.70
2022-08-28T01:49:12.940Z,25.30
2022-08-28T01:49:22.962Z,24.20
2022-08-28T01:49:32.939Z,23.40
2022-08-28T01:49:42.940Z,23.90
2022-08-28T01:49:52.971Z,26.10
2022-08-28T01:50:02.947Z,26.90
2022-08-28T01:50:12.933Z,25.70
2022-08-28T01:50:22.931Z,22.30
2022-08-28T01:50:32.934Z,21.30
2022-08-28T01:50:42.943Z,20.30
2022-08-28T01:50:52.950Z,21.10
2022-08-28T01:51:03.776Z,20.40
2022-08-28T01:51:12.924Z,21.80
2022-08-28T01:51:24.761Z,22.60
2022-08-28T01:51:35.048Z,23.30
2022-08-28T01:51:42.927Z,22.60
2022-08-28T01:51:54.736Z,22.50
2022-08-28T01:52:03.384Z,22.70
2022-08-28T01:52:12.927Z,22.40
2022-08-28T01:52:26.387Z,22.40
2022-08-28T01:52:32.921Z,21.80
2022-08-28T01:52:42.966Z,22.50
2022-08-28T01:52:53.781Z,22.60
2022-08-28T01:53:03.762Z,23.30
2022-08-28T01:53:12.915Z,22.60
2022-08-28T01:53:24.924Z,22.40
2022-08-28T01:53:33.474Z,21.50
2022-08-28T01:53:45.072Z,22.60
2022-08-28T01:53:52.915Z,21.60
2022-08-28T01:54:02.993Z,21.80
2022-08-28T01:54:12.916Z,21.40
2022-08-28T01:54:22.918Z,22.90
2022-08-28T01:54:32.911Z,24.00
2022-08-28T01:54:42.930Z,24.30
2022-08-28T01:54:52.929Z,24.50
2022-08-28T01:55:02.909Z,24.30
2022-08-28T01:55:12.991Z,24.20
2022-08-28T01:55:22.935Z,24.10
2022-08-28T01:55:32.915Z,22.30
2022-08-28T01:55:42.913Z,22.20
2022-08-28T01:55:52.962Z,21.50
2022-08-28T01:56:03.021Z,22.70
2022-08-28T01:56:12.959Z,22.00
2022-08-28T01:56:22.908Z,22.40
2022-08-28T01:56:32.897Z,22.60
2022-08-28T01:56:42.929Z,23.00
2022-08-28T01:56:52.897Z,23.70
2022-08-28T01:57:02.900Z,25.10
2022-08-28T01:57:13.782Z,26.60
2022-08-28T01:57:22.898Z,26.40
2022-08-28T01:57:32.912Z,26.40
2022-08-28T01:57:42.897Z,25.70
2022-08-28T01:57:52.897Z,25.20
2022-08-28T01:58:02.908Z,24.50
2022-08-28T01:58:13.058Z,24.60
2022-08-28T01:58:22.907Z,25.10
2022-08-28T01:58:37.545Z,26.00
2022-08-28T01:58:42.914Z,26.40
2022-08-28T01:58:52.890Z,27.10
2022-08-28T01:59:02.896Z,26.00
2022-08-28T01:59:12.903Z,27.10
2022-08-28T01:59:22.935Z,27.30
2022-08-28T01:59:32.904Z,28.80
2022-08-28T01:59:42.889Z,27.40
2022-08-28T01:59:52.885Z,25.90
2022-08-28T02:00:02.891Z,25.10
2022-08-28T02:00:12.904Z,25.80
2022-08-28T02:00:22.896Z,27.00
2022-08-28T02:00:32.880Z,27.60
2022-08-28T02:00:42.885Z,27.50
2022-08-28T02:00:52.941Z,27.40
2022-08-28T02:01:02.886Z,27.50
2022-08-28T02:01:12.986Z,27.70
2022-08-28T02:01:23.374Z,29.30
2022-08-28T02:01:32.940Z,30.00
2022-08-28T02:01:42.968Z,31.60
2022-08-28T02:01:52.942Z,30.60
2022-08-28T02:02:02.945Z,29.90
2022-08-28T02:02:12.884Z,29.70
2022-08-28T02:02:22.917Z,30.00
2022-08-28T02:02:32.889Z,30.80
2022-08-28T02:02:42.879Z,30.80
2022-08-28T02:02:52.878Z,31.10
2022-08-28T02:03:02.891Z,32.40
2022-08-28T02:03:12.876Z,33.10
2022-08-28T02:03:22.891Z,35.00
2022-08-28T02:03:32.961Z,35.90
2022-08-28T02:03:42.916Z,38.40
2022-08-28T02:03:53.062Z,38.50
2022-08-28T02:04:02.931Z,39.20
2022-08-28T02:04:13.043Z,39.50
2022-08-28T02:04:23.078Z,42.20
2022-08-28T02:04:32.926Z,45.20
2022-08-28T02:04:46.231Z,45.00
2022-08-28T02:04:52.959Z,45.00
2022-08-28T02:05:02.872Z,43.50
2022-08-28T02:05:12.877Z,45.10
2022-08-28T02:05:23.817Z,44.50
2022-08-28T02:05:33.775Z,46.40
2022-08-28T02:05:43.763Z,46.40
2022-08-28T02:05:52.873Z,48.40
2022-08-28T02:06:02.870Z,46.90
2022-08-28T02:06:12.866Z,47.60
2022-08-28T02:06:22.860Z,44.90
2022-08-28T02:06:32.915Z,43.70
2022-08-28T02:06:43.770Z,41.20
2022-08-28T02:06:52.858Z,41.80
2022-08-28T02:07:02.870Z,41.30
2022-08-28T02:07:12.902Z,40.50
2022-08-28T02:07:22.862Z,39.70
2022-08-28T02:07:32.874Z,41.10
2022-08-28T02:07:42.911Z,42.80
2022-08-28T02:07:52.866Z,43.70
2022-08-28T02:08:02.871Z,43.50
2022-08-28T02:08:12.950Z,43.40
2022-08-28T02:08:22.855Z,44.30
2022-08-28T02:08:32.879Z,45.20
2022-08-28T02:08:42.899Z,46.10